createdAt,value
2018-02-17T00:02:12.356Z,38.00
2018-02-17T00:04:40.074Z,30.02
2018-02-17T00:07:07.004Z,26.35
2018-02-17T00:09:33.962Z,30.77
2018-02-17T00:12:00.882Z,28.30
2018-02-17T00:14:27.828Z,38.47
2018-02-17T00:16:54.736Z,27.27
2018-02-17T00:19:21.689Z,19.35
2018-02-17T00:21:48.608Z,24.45
2018-02-17T00:24:15.553Z,28.42
2018-02-17T00:26:42.460Z,44.47
2018-02-17T00:29:09.389Z,35.83
2018-02-17T00:31:37.073Z,17.08
2018-02-17T00:34:04.003Z,31.27
2018-02-17T00:36:30.929Z,42.17
2018-02-17T00:38:57.857Z,43.72
2018-02-17T00:41:24.770Z,37.42
2018-02-17T00:43:51.697Z,28.10
2018-02-17T00:46:18.599Z,32.85
2018-02-17T00:48:45.508Z,29.77
2018-02-17T00:51:12.441Z,27.65
2018-02-17T00:53:39.344Z,29.48
2018-02-17T00:56:06.275Z,22.27
2018-02-17T00:58:33.198Z,36.17
2018-02-17T01:01:00.128Z,20.58
2018-02-17T01:03:27.032Z,30.60
2018-02-17T01:05:53.956Z,42.20
2018-02-17T01:08:20.873Z,20.05
2018-02-17T01:10:47.793Z,19.45
2018-02-17T01:13:15.468Z,31.20
2018-02-17T01:15:42.384Z,24.15
2018-02-17T01:18:09.284Z,31.05
2018-02-17T01:20:36.205Z,32.38
2018-02-17T01:23:03.879Z,35.35
2018-02-17T01:25:31.567Z,33.97
2018-02-17T01:27:58.473Z,27.83
2018-02-17T01:30:26.156Z,28.98
2018-02-17T01:32:53.068Z,31.45
2018-02-17T01:35:20.001Z,31.73
2018-02-17T01:37:46.905Z,25.08
2018-02-17T01:40:13.824Z,34.25
2018-02-17T01:42:41.500Z,29.42
2018-02-17T01:45:08.431Z,28.38
2018-02-17T01:47:36.109Z,25.77
2018-02-17T01:50:04.728Z,23.52
2018-02-17T01:52:32.641Z,36.97
2018-02-17T01:55:00.346Z,23.35
2018-02-17T01:57:27.253Z,26.20
2018-02-17T01:59:54.941Z,36.15
2018-02-17T02:02:21.853Z,26.90
2018-02-17T02:04:49.550Z,43.92
2018-02-17T02:07:16.460Z,24.20
2018-02-17T02:09:45.154Z,32.58
2018-02-17T02:12:12.824Z,33.72
2018-02-17T02:14:39.745Z,34.08
2018-02-17T02:17:06.671Z,34.53
2018-02-17T02:19:33.592Z,26.83
2018-02-17T02:22:01.504Z,21.98
2018-02-17T02:24:29.188Z,32.45
2018-02-17T02:26:56.116Z,24.40
2018-02-17T02:29:23.811Z,24.05
2018-02-17T02:31:50.736Z,33.58
2018-02-17T02:34:17.668Z,25.83
2018-02-17T02:36:46.352Z,32.20
2018-02-17T02:39:14.050Z,34.75
2018-02-17T02:41:40.964Z,26.42
2018-02-17T02:44:09.652Z,29.77
2018-02-17T02:46:37.329Z,51.13
2018-02-17T02:49:04.232Z,28.25
2018-02-17T02:51:31.161Z,21.92
2018-02-17T02:53:58.073Z,31.27
2018-02-17T02:56:25.001Z,35.05
2018-02-17T02:58:52.673Z,32.85
2018-02-17T03:01:19.603Z,42.85
2018-02-17T03:03:47.290Z,29.95
2018-02-17T03:06:14.220Z,35.80
2018-02-17T03:08:41.128Z,35.07
2018-02-17T03:11:08.065Z,34.30
2018-02-17T03:13:34.976Z,29.33
2018-02-17T03:16:01.903Z,41.37
2018-02-17T03:18:28.813Z,30.30
2018-02-17T03:20:55.742Z,32.75
2018-02-17T03:23:22.649Z,42.40
2018-02-17T03:25:50.492Z,44.63
2018-02-17T03:28:17.393Z,28.20
2018-02-17T03:30:44.317Z,32.05
2018-02-17T03:33:11.225Z,29.02
2018-02-17T03:35:38.147Z,47.70
2018-02-17T03:38:05.826Z,41.30
2018-02-17T03:40:33.547Z,43.97
2018-02-17T03:43:00.436Z,46.40
2018-02-17T03:45:28.128Z,31.30
2018-02-17T03:47:55.035Z,45.17
2018-02-17T03:50:22.719Z,48.33
2018-02-17T03:52:49.620Z,48.63
2018-02-17T03:55:17.512Z,49.80
2018-02-17T03:57:44.411Z,56.83
2018-02-17T04:00:11.337Z,36.35
2018-02-17T04:02:38.252Z,50.83
2018-02-17T04:05:05.180Z,46.72
2018-02-17T04:07:32.854Z,42.15
2018-02-17T04:09:59.777Z,38.83
2018-02-17T04:12:27.457Z,51.30
2018-02-17T04:14:54.381Z,39.83
2018-02-17T04:17:22.061Z,47.65
2018-02-17T04:19:48.984Z,41.65
2018-02-17T04:22:16.659Z,42.60
2018-02-17T04:24:44.357Z,40.00
2018-02-17T04:27:11.260Z,52.13
2018-02-17T04:29:39.952Z,35.72
2018-02-17T04:32:07.625Z,46.78
2018-02-17T04:34:34.548Z,48.30
2018-02-17T04:37:02.229Z,39.55
2018-02-17T04:39:29.161Z,36.55
2018-02-17T04:41:56.836Z,32.47
2018-02-17T04:44:23.756Z,38.22
2018-02-17T04:46:51.432Z,52.25
2018-02-17T04:49:18.351Z,36.47
2018-02-17T04:51:45.264Z,40.28
2018-02-17T04:54:12.189Z,45.72
2018-02-17T04:56:39.109Z,47.13
2018-02-17T04:59:06.027Z,46.63
2018-02-17T05:01:32.944Z,40.67
2018-02-17T05:03:59.876Z,46.85
2018-02-17T05:06:26.785Z,42.30
2018-02-17T05:08:53.708Z,37.05
2018-02-17T05:11:22.388Z,37.42
2018-02-17T05:13:49.316Z,38.83
2018-02-17T05:16:16.225Z,45.75
2018-02-17T05:18:43.149Z,35.08
2018-02-17T05:21:10.057Z,43.15
2018-02-17T05:23:36.991Z,33.70
2018-02-17T05:26:04.664Z,39.75
2018-02-17T05:28:31.592Z,42.78
2018-02-17T05:30:58.504Z,40.25
2018-02-17T05:33:25.424Z,45.05
2018-02-17T05:35:52.336Z,39.70
2018-02-17T05:38:19.263Z,39.70
2018-02-17T05:40:46.172Z,32.25
2018-02-17T05:43:13.096Z,36.53
2018-02-17T05:45:40.777Z,32.53
2018-02-17T05:48:07.701Z,55.85
2018-02-17T05:50:34.613Z,33.10
2018-02-17T05:53:01.544Z,32.83
2018-02-17T05:55:28.458Z,48.13
2018-02-17T05:57:55.365Z,53.13
2018-02-17T06:00:23.057Z,45.17
2018-02-17T06:02:49.969Z,43.75
2018-02-17T06:05:17.663Z,35.25
2018-02-17T06:07:44.568Z,37.13
2018-02-17T06:10:13.274Z,38.55
2018-02-17T06:12:40.184Z,37.40
2018-02-17T06:15:07.134Z,40.55
2018-02-17T06:17:34.057Z,45.08
2018-02-17T06:20:00.988Z,41.40
2018-02-17T06:22:27.891Z,43.08
2018-02-17T06:24:55.580Z,43.92
2018-02-17T06:27:22.485Z,47.30
2018-02-17T06:29:50.177Z,45.60
2018-02-17T06:32:17.085Z,35.90
2018-02-17T06:34:44.781Z,38.78
2018-02-17T06:37:11.696Z,43.58
2018-02-17T06:39:39.389Z,46.28
2018-02-17T06:42:09.474Z,43.35
2018-02-17T06:44:39.106Z,40.12
2018-02-17T06:47:06.016Z,45.83
2018-02-17T06:49:32.941Z,43.33
2018-02-17T06:51:59.854Z,45.22
2018-02-17T06:54:26.784Z,49.58
2018-02-17T06:56:54.627Z,48.53
2018-02-17T06:59:22.316Z,54.85
2018-02-17T07:01:49.225Z,61.72
2018-02-17T07:04:16.925Z,49.10
2018-02-17T07:06:43.834Z,51.13
2018-02-17T07:09:10.755Z,54.88
2018-02-17T07:11:37.661Z,53.55
2018-02-17T07:14:05.489Z,51.70
2018-02-17T07:20:03.294Z,52.03
2018-02-17T07:22:30.200Z,41.65
2018-02-17T07:24:57.129Z,38.63
2018-02-17T07:27:24.041Z,44.78
2018-02-17T07:29:50.973Z,45.35
2018-02-17T07:32:17.886Z,48.20
2018-02-17T07:34:44.821Z,46.30
2018-02-17T07:37:11.750Z,39.47
2018-02-17T07:39:38.685Z,51.25
2018-02-17T07:42:05.609Z,40.70
2018-02-17T07:44:32.527Z,39.05
2018-02-17T07:47:00.203Z,49.05
2018-02-17T07:49:27.148Z,44.58
2018-02-17T07:51:54.058Z,38.10
2018-02-17T07:54:20.982Z,38.65
2018-02-17T07:56:47.932Z,45.80
2018-02-17T07:59:14.881Z,41.35
2018-02-17T08:01:41.787Z,39.55
2018-02-17T08:04:08.703Z,37.03
2018-02-17T08:06:36.397Z,37.00
2018-02-17T08:09:04.320Z,37.25
2018-02-17T08:11:32.025Z,31.52
2018-02-17T08:13:58.937Z,35.10
2018-02-17T08:16:26.694Z,38.50
2018-02-17T08:18:56.293Z,34.10
2018-02-17T08:21:24.012Z,37.97
2018-02-17T08:23:50.929Z,31.40
2018-02-17T08:26:17.901Z,37.35
2018-02-17T08:28:45.821Z,35.97
2018-02-17T08:31:13.517Z,43.03
2018-02-17T08:33:40.565Z,32.63
2018-02-17T08:36:08.318Z,31.40
2018-02-17T08:38:35.271Z,38.90
2018-02-17T08:41:02.294Z,25.45
2018-02-17T08:43:29.337Z,48.13
2018-02-17T08:45:57.252Z,44.50
2018-02-17T08:48:25.168Z,32.55
2018-02-17T08:50:54.790Z,41.95
2018-02-17T08:53:21.764Z,42.50
2018-02-17T08:55:48.706Z,32.75
2018-02-17T08:58:15.645Z,33.00
2018-02-17T09:00:44.627Z,39.42
2018-02-17T09:03:11.546Z,33.03
2018-02-17T09:05:39.261Z,34.88
2018-02-17T09:08:07.154Z,35.72
2018-02-17T09:10:47.849Z,33.13
2018-02-17T09:13:15.539Z,32.88
2018-02-17T09:15:42.466Z,35.30
2018-02-17T09:18:09.358Z,35.15
2018-02-17T09:20:36.250Z,34.90
2018-02-17T09:23:03.936Z,37.67
2018-02-17T09:25:30.853Z,33.78
2018-02-17T09:27:57.785Z,31.75
2018-02-17T09:30:25.464Z,33.38
2018-02-17T09:32:52.390Z,33.20
2018-02-17T09:35:20.051Z,24.15
2018-02-17T09:37:48.738Z,34.58
2018-02-17T09:40:16.407Z,30.42
2018-02-17T09:42:44.100Z,32.83
2018-02-17T09:45:11.927Z,31.25
2018-02-17T09:47:39.618Z,35.25
2018-02-17T09:50:06.538Z,39.35
2018-02-17T09:52:34.577Z,30.80
2018-02-17T09:55:02.482Z,32.20
2018-02-17T09:57:30.178Z,38.83
2018-02-17T09:59:57.093Z,26.33
2018-02-17T10:02:24.020Z,33.28
2018-02-17T10:04:51.704Z,31.75
2018-02-17T10:07:18.645Z,29.17
2018-02-17T10:09:47.469Z,28.67
2018-02-17T10:12:15.425Z,28.52
2018-02-17T10:14:42.342Z,32.35
2018-02-17T10:17:11.029Z,23.00
2018-02-17T10:19:37.943Z,30.40
2018-02-17T10:22:04.881Z,36.03
2018-02-17T10:24:31.804Z,30.85
2018-02-17T10:26:59.998Z,29.75
2018-02-17T10:29:26.913Z,32.45
2018-02-17T10:31:54.852Z,26.73
2018-02-17T10:34:22.706Z,25.90
2018-02-17T10:36:50.402Z,30.50
2018-02-17T10:39:18.145Z,26.25
2018-02-17T10:41:45.085Z,30.80
2018-02-17T10:44:12.042Z,29.80
2018-02-17T10:46:38.990Z,27.42
2018-02-17T10:49:05.913Z,27.10
2018-02-17T10:51:33.809Z,22.65
2018-02-17T10:54:00.733Z,24.77
2018-02-17T10:56:27.668Z,32.38
2018-02-17T10:58:58.037Z,29.37
2018-02-17T11:01:25.013Z,24.27
2018-02-17T11:03:51.922Z,26.33
2018-02-17T11:06:18.874Z,32.25
2018-02-17T11:08:49.521Z,30.33
2018-02-17T11:11:16.472Z,23.10
2018-02-17T11:13:43.389Z,28.10
2018-02-17T11:16:10.397Z,23.27
2018-02-17T11:18:40.018Z,26.23
2018-02-17T11:21:07.885Z,30.50
2018-02-17T11:23:34.796Z,30.17
2018-02-17T11:26:02.498Z,27.87
2018-02-17T11:28:29.417Z,28.25
2018-02-17T11:30:57.445Z,25.12
2018-02-17T11:33:25.155Z,26.27
2018-02-17T11:35:52.095Z,23.00
2018-02-17T11:38:19.969Z,28.23
2018-02-17T11:40:47.855Z,24.15
2018-02-17T11:43:14.779Z,27.55
2018-02-17T11:45:41.713Z,25.23
2018-02-17T11:48:09.404Z,22.87
2018-02-17T11:50:36.336Z,30.33
2018-02-17T11:53:03.244Z,27.92
2018-02-17T11:55:30.173Z,29.77
2018-02-17T11:57:58.122Z,22.37
2018-02-17T12:00:26.937Z,22.30
2018-02-17T12:02:53.865Z,14.43
2018-02-17T12:05:20.805Z,17.75
2018-02-17T12:07:47.731Z,28.00
2018-02-17T12:10:14.671Z,21.35
2018-02-17T12:12:41.582Z,18.25
2018-02-17T12:15:10.298Z,18.48
2018-02-17T12:17:37.213Z,18.17
2018-02-17T12:20:04.912Z,16.40
2018-02-17T12:22:31.874Z,15.15
2018-02-17T12:24:59.387Z,17.55
2018-02-17T12:27:27.060Z,12.55
2018-02-17T12:29:53.972Z,14.70
2018-02-17T12:32:20.892Z,16.92
2018-02-17T12:34:47.835Z,15.10
2018-02-17T12:37:14.761Z,14.50
2018-02-17T12:39:41.672Z,12.63
2018-02-17T12:42:11.305Z,10.98
2018-02-17T12:44:39.237Z,12.02
2018-02-17T12:47:06.169Z,18.02
2018-02-17T12:49:33.089Z,23.70
2018-02-17T12:52:00.037Z,10.25
2018-02-17T12:54:26.988Z,10.57
2018-02-17T12:56:53.916Z,17.65
2018-02-17T12:59:20.849Z,13.07
2018-02-17T13:01:47.823Z,20.65
2018-02-17T13:04:14.757Z,12.13
2018-02-17T13:06:41.667Z,12.35
2018-02-17T13:09:08.592Z,12.63
2018-02-17T13:11:35.508Z,9.95
2018-02-17T13:14:03.233Z,15.25
2018-02-17T13:16:31.148Z,14.30
2018-02-17T13:18:58.849Z,12.18
2018-02-17T13:21:25.753Z,18.35
2018-02-17T13:23:53.452Z,12.40
2018-02-17T13:26:20.365Z,14.43
2018-02-17T13:28:48.044Z,14.30
2018-02-17T13:31:15.931Z,9.35
2018-02-17T13:33:44.776Z,8.48
2018-02-17T13:36:11.714Z,12.93
2018-02-17T13:38:38.638Z,12.15
2018-02-17T13:41:05.586Z,10.85
2018-02-17T13:43:32.505Z,9.55
2018-02-17T13:45:59.436Z,11.65
2018-02-17T13:48:26.349Z,12.15
2018-02-17T13:53:51.827Z,9.60
2018-02-17T13:56:22.350Z,12.23
2018-02-17T13:58:51.236Z,9.27
2018-02-17T14:01:18.147Z,10.68
2018-02-17T14:03:45.844Z,12.63
2018-02-17T14:06:13.648Z,11.18
2018-02-17T14:08:41.565Z,5.85
2018-02-17T14:11:08.490Z,11.75
2018-02-17T14:13:35.461Z,6.95
2018-02-17T14:16:03.353Z,9.25
2018-02-17T14:18:30.273Z,10.77
2018-02-17T14:20:57.197Z,11.32
2018-02-17T14:23:24.116Z,9.98
2018-02-17T14:25:53.040Z,12.10
2018-02-17T14:28:20.908Z,8.90
2018-02-17T14:30:48.768Z,16.12
2018-02-17T14:33:16.649Z,7.80
2018-02-17T14:35:43.560Z,12.68
2018-02-17T14:38:10.489Z,6.45
2018-02-17T14:40:38.416Z,13.38
2018-02-17T14:43:05.357Z,5.68
2018-02-17T14:45:32.278Z,5.85
2018-02-17T14:47:59.237Z,10.20
2018-02-17T14:50:26.150Z,18.17
2018-02-17T14:52:53.852Z,13.65
2018-02-17T14:55:20.774Z,13.18
2018-02-17T14:57:49.681Z,10.77
2018-02-17T15:00:16.615Z,16.17
2018-02-17T15:02:43.537Z,10.02
2018-02-17T15:05:10.445Z,20.83
2018-02-17T15:07:37.397Z,14.50
2018-02-17T15:10:04.301Z,10.68
2018-02-17T15:12:32.137Z,9.85
2018-02-17T15:14:59.829Z,13.75
2018-02-17T15:17:27.658Z,12.37
2018-02-17T15:19:54.590Z,6.82
2018-02-17T15:22:21.533Z,11.90
2018-02-17T15:24:48.469Z,13.10
2018-02-17T15:27:15.393Z,15.57
2018-02-17T15:29:42.323Z,24.15
2018-02-17T15:32:09.245Z,23.12
2018-02-17T15:34:37.136Z,14.23
2018-02-17T15:37:05.081Z,12.40
2018-02-17T15:39:32.952Z,19.48
2018-02-17T15:41:59.872Z,13.35
2018-02-17T15:44:27.583Z,18.60
2018-02-17T15:46:54.493Z,13.95
2018-02-17T15:49:22.202Z,16.83
2018-02-17T15:51:49.115Z,14.68
2018-02-17T15:54:16.088Z,12.02
2018-02-17T15:56:42.998Z,14.10
2018-02-17T15:59:09.925Z,20.40
2018-02-17T16:01:37.606Z,22.77
2018-02-17T16:04:04.538Z,10.80
2018-02-17T16:06:32.225Z,8.80
2018-02-17T16:08:59.157Z,16.25
2018-02-17T16:11:27.930Z,11.65
2018-02-17T16:13:55.617Z,15.43
2018-02-17T16:16:23.427Z,18.42
2018-02-17T16:18:51.378Z,26.80
2018-02-17T16:21:18.391Z,19.87
2018-02-17T16:23:45.341Z,15.02
2018-02-17T16:26:12.253Z,18.75
2018-02-17T16:28:39.942Z,17.00
2018-02-17T16:31:06.876Z,15.30
2018-02-17T16:33:33.861Z,27.20
2018-02-17T16:36:01.776Z,19.37
2018-02-17T16:38:29.463Z,26.65
2018-02-17T16:40:56.388Z,19.98
2018-02-17T16:43:25.996Z,20.60
2018-02-17T16:45:52.964Z,22.40
2018-02-17T16:48:20.866Z,30.33
2018-02-17T16:50:48.769Z,25.23
2018-02-17T16:53:15.696Z,23.40
2018-02-17T16:55:42.600Z,22.70
2018-02-17T16:58:09.529Z,19.10
2018-02-17T17:00:36.444Z,32.65
2018-02-17T17:03:04.286Z,18.08
2018-02-17T17:05:31.201Z,20.05
2018-02-17T17:07:58.132Z,19.58
2018-02-17T17:10:25.051Z,15.98
2018-02-17T17:12:51.986Z,23.17
2018-02-17T17:15:18.899Z,16.92
2018-02-17T17:17:47.596Z,17.12
2018-02-17T17:20:14.525Z,17.10
2018-02-17T17:22:42.233Z,15.88
2018-02-17T17:25:09.153Z,19.08
2018-02-17T17:27:36.087Z,18.80
2018-02-17T17:30:03.761Z,20.10
2018-02-17T17:32:30.677Z,20.27
2018-02-17T17:34:57.601Z,27.73
2018-02-17T17:37:24.545Z,25.65
2018-02-17T17:39:51.477Z,20.35
2018-02-17T17:42:18.405Z,19.60
2018-02-17T17:44:45.330Z,17.23
2018-02-17T17:47:13.196Z,23.17
2018-02-17T17:49:40.117Z,25.88
2018-02-17T17:52:09.025Z,30.12
2018-02-17T17:54:35.950Z,24.60
2018-02-17T17:57:04.822Z,20.90
2018-02-17T17:59:32.719Z,25.33
2018-02-17T18:01:59.673Z,27.80
2018-02-17T18:04:26.592Z,27.02
2018-02-17T18:06:55.317Z,19.08
2018-02-17T18:09:22.232Z,31.42
2018-02-17T18:11:51.848Z,26.83
2018-02-17T18:14:19.697Z,24.17
2018-02-17T18:16:47.431Z,25.73
2018-02-17T18:19:14.340Z,20.45
2018-02-17T18:21:42.208Z,33.50
2018-02-17T18:24:10.144Z,27.08
2018-02-17T18:26:37.847Z,22.23
2018-02-17T18:29:04.760Z,26.90
2018-02-17T18:31:31.725Z,24.73
2018-02-17T18:33:58.637Z,32.45
2018-02-17T18:36:30.194Z,18.67
2018-02-17T18:38:59.390Z,25.92
2018-02-17T18:41:26.325Z,20.73
2018-02-17T18:43:55.069Z,23.12
2018-02-17T18:46:22.046Z,18.35
2018-02-17T18:48:50.880Z,21.40
2018-02-17T18:51:18.745Z,24.25
2018-02-17T18:53:46.633Z,21.40
2018-02-17T18:56:14.569Z,21.98
2018-02-17T18:58:41.501Z,25.48
2018-02-17T19:01:09.400Z,18.77
2018-02-17T19:03:36.369Z,59.72
2018-02-17T19:06:03.311Z,21.55
2018-02-17T19:08:31.047Z,23.67
2018-02-17T19:10:57.982Z,17.42
2018-02-17T19:13:24.964Z,20.35
2018-02-17T19:15:53.896Z,21.12
2018-02-17T19:18:21.596Z,15.18
2018-02-17T19:20:48.531Z,15.27
2018-02-17T19:23:18.413Z,19.30
2018-02-17T19:25:46.105Z,17.27
2018-02-17T19:28:15.070Z,17.40
2018-02-17T19:30:42.232Z,14.70
2018-02-17T19:33:09.224Z,20.98
2018-02-17T19:35:36.174Z,18.15
2018-02-17T19:38:06.008Z,13.93
2018-02-17T19:40:34.977Z,13.40
2018-02-17T19:43:03.009Z,20.42
2018-02-17T19:45:32.842Z,16.30
2018-02-17T19:47:59.815Z,26.00
2018-02-17T19:50:26.752Z,26.48
2018-02-17T19:52:53.738Z,18.67
2018-02-17T19:55:20.752Z,21.05
2018-02-17T19:57:51.954Z,16.65
2018-02-17T20:00:20.922Z,19.75
2018-02-17T20:02:47.922Z,13.10
2018-02-17T20:05:14.866Z,17.60
2018-02-17T20:07:41.827Z,23.15
2018-02-17T20:10:08.799Z,16.45
2018-02-17T20:12:37.436Z,12.73
2018-02-17T20:15:04.410Z,10.13
2018-02-17T20:17:32.379Z,12.50
2018-02-17T20:20:01.211Z,18.70
2018-02-17T20:22:28.247Z,19.37
2018-02-17T20:24:56.172Z,11.40
2018-02-17T20:27:23.141Z,20.20
2018-02-17T20:29:52.113Z,12.43
2018-02-17T20:32:19.032Z,15.48
2018-02-17T20:34:46.865Z,17.77
2018-02-17T20:37:14.800Z,19.70
2018-02-17T20:39:41.760Z,36.80
2018-02-17T20:42:09.473Z,27.23
2018-02-17T20:44:36.398Z,36.53
2018-02-17T20:47:03.372Z,33.60
2018-02-17T20:49:30.281Z,22.40
2018-02-17T20:51:57.273Z,20.92
2018-02-17T20:54:24.258Z,16.95
2018-02-17T20:56:51.217Z,19.98
2018-02-17T20:59:18.158Z,19.85
2018-02-17T21:01:45.151Z,21.40
2018-02-17T21:04:12.113Z,28.02
2018-02-17T21:06:41.901Z,33.03
2018-02-17T21:09:08.889Z,32.72
2018-02-17T21:11:38.667Z,35.03
2018-02-17T21:14:05.629Z,29.17
2018-02-17T21:16:33.459Z,28.35
2018-02-17T21:19:01.227Z,19.85
2018-02-17T21:21:28.204Z,28.02
2018-02-17T21:23:55.160Z,36.70
2018-02-17T21:26:25.775Z,24.10
2018-02-17T21:28:52.733Z,21.20
2018-02-17T21:31:20.465Z,24.73
2018-02-17T21:33:53.872Z,24.30
2018-02-17T21:36:20.857Z,21.98
2018-02-17T21:38:52.985Z,23.05
2018-02-17T21:41:26.521Z,28.98
2018-02-17T21:43:53.878Z,29.75
2018-02-17T21:46:21.998Z,18.27
2018-02-17T21:48:49.728Z,24.20
2018-02-17T21:51:16.782Z,17.92
2018-02-17T21:53:43.773Z,25.58
2018-02-17T21:56:12.507Z,19.80
2018-02-17T21:58:40.222Z,17.67
2018-02-17T22:01:07.193Z,16.60
2018-02-17T22:03:35.023Z,12.95
2018-02-17T22:06:03.774Z,14.20
2018-02-17T22:08:30.696Z,15.68
2018-02-17T22:10:57.639Z,18.42
2018-02-17T22:13:24.577Z,13.32
2018-02-17T22:15:51.535Z,11.12
2018-02-17T22:18:18.469Z,10.82
2018-02-17T22:20:45.423Z,11.32
2018-02-17T22:23:12.370Z,10.00
2018-02-17T22:25:39.427Z,12.15
2018-02-17T22:28:06.374Z,11.88
2018-02-17T22:30:35.240Z,11.27
2018-02-17T22:33:02.158Z,6.65
2018-02-17T22:35:29.861Z,12.00
2018-02-17T22:37:56.817Z,7.00
2018-02-17T22:40:24.672Z,14.90
2018-02-17T22:42:51.632Z,13.88
2018-02-17T22:45:18.580Z,10.57
2018-02-17T22:47:46.382Z,10.68
2018-02-17T22:50:13.309Z,6.72
2018-02-17T22:52:40.256Z,5.45
2018-02-17T22:55:07.257Z,11.30
2018-02-17T22:57:34.219Z,12.18
2018-02-17T23:00:02.112Z,7.37
2018-02-17T23:02:29.083Z,9.85
2018-02-17T23:04:57.997Z,7.43
2018-02-17T23:07:25.729Z,9.35
2018-02-17T23:09:52.737Z,13.73
2018-02-17T23:12:22.437Z,16.90
2018-02-17T23:14:49.435Z,8.18
2018-02-17T23:17:17.313Z,8.40
2018-02-17T23:19:45.032Z,9.98
2018-02-17T23:22:11.969Z,13.65
2018-02-17T23:24:41.871Z,11.32
2018-02-17T23:27:08.828Z,17.98
2018-02-17T23:29:35.771Z,9.38
2018-02-17T23:32:02.710Z,9.30
2018-02-17T23:34:29.710Z,10.23
2018-02-17T23:36:56.602Z,7.70
2018-02-17T23:39:23.541Z,10.68
2018-02-17T23:41:50.453Z,11.05
2018-02-17T23:44:18.200Z,11.73
2018-02-17T23:46:45.881Z,9.07
2018-02-17T23:49:13.564Z,10.27
2018-02-17T23:51:40.547Z,7.18
2018-02-17T23:54:08.429Z,10.18
2018-02-17T23:56:36.321Z,12.57
2018-02-17T23:59:04.021Z,12.40
